sensor_id;sensor_type;location;lat;lon;timestamp;pressure;altitude;pressure_sealevel;temperature;humidity
36726;BME280;44936;52.086;5.150;2022-09-09T08:52:02;94755.50;;;17.64;100.00
36726;BME280;44936;52.086;5.150;2022-09-09T08:54:34;94789.59;;;17.52;100.00
36726;BME280;44936;52.086;5.150;2022-09-09T08:57:01;94809.31;;;17.49;100.00
36726;BME280;44936;52.086;5.150;2022-09-09T08:59:26;94825.38;;;17.48;100.00
36726;BME280;44936;52.086;5.150;2022-09-09T09:02:26;94898.59;;;17.26;100.00
36726;BME280;44936;52.086;5.150;2022-09-09T09:05:05;94929.25;;;17.20;100.00
36726;BME280;44936;52.086;5.150;2022-09-09T09:07:50;94923.69;;;17.30;100.00
36726;BME280;44936;52.086;5.150;2022-09-09T09:12:54;94781.22;;;17.34;100.00
36726;BME280;44936;52.086;5.150;2022-09-09T09:15:25;94787.53;;;17.18;100.00
36726;BME280;44936;52.086;5.150;2022-09-09T09:17:52;94769.44;;;17.21;100.00
36726;BME280;44936;52.086;5.150;2022-09-09T09:20:23;94749.66;;;17.17;100.00
36726;BME280;44936;52.086;5.150;2022-09-09T09:22:54;94784.16;;;17.09;100.00
36726;BME280;44936;52.086;5.150;2022-09-09T09:25:23;94823.28;;;17.14;100.00
36726;BME280;44936;52.086;5.150;2022-09-09T09:30:44;94874.22;;;17.01;100.00
36726;BME280;44936;52.086;5.150;2022-09-09T09:33:34;94864.63;;;17.00;100.00
36726;BME280;44936;52.086;5.150;2022-09-09T09:36:00;94847.84;;;16.93;100.00
36726;BME280;44936;52.086;5.150;2022-09-09T09:38:27;94691.56;;;16.94;100.00
36726;BME280;44936;52.086;5.150;2022-09-09T09:40:55;94537.38;;;16.79;100.00
36726;BME280;44936;52.086;5.150;2022-09-09T09:43:33;94349.22;;;16.82;100.00
36726;BME280;44936;52.086;5.150;2022-09-09T09:45:59;94152.19;;;16.65;100.00
36726;BME280;44936;52.086;5.150;2022-09-09T09:48:25;93993.53;;;16.58;100.00
36726;BME280;44936;52.086;5.150;2022-09-09T09:51:00;93817.88;;;16.61;100.00
36726;BME280;44936;52.086;5.150;2022-09-09T09:53:31;93591.94;;;16.63;100.00
36726;BME280;44936;52.086;5.150;2022-09-09T09:56:15;93348.94;;;16.68;100.00
36726;BME280;44936;52.086;5.150;2022-09-09T10:01:44;93106.94;;;16.73;100.00
36726;BME280;44936;52.086;5.150;2022-09-09T10:04:23;93056.75;;;16.84;100.00
36726;BME280;44936;52.086;5.150;2022-09-09T10:06:49;93006.41;;;16.91;100.00
36726;BME280;44936;52.086;5.150;2022-09-09T10:09:25;92948.47;;;16.89;100.00
36726;BME280;44936;52.086;5.150;2022-09-09T10:14:44;92808.13;;;16.91;100.00
36726;BME280;44936;52.086;5.150;2022-09-09T10:17:21;92859.38;;;16.90;100.00
36726;BME280;44936;52.086;5.150;2022-09-09T10:22:47;92748.88;;;17.04;100.00
36726;BME280;44936;52.086;5.150;2022-09-09T10:28:46;92507.41;;;17.32;100.00
36726;BME280;44936;52.086;5.150;2022-09-09T10:31:14;92426.78;;;17.56;100.00
36726;BME280;44936;52.086;5.150;2022-09-09T10:36:24;92487.03;;;17.82;100.00
36726;BME280;44936;52.086;5.150;2022-09-09T10:39:18;92594.06;;;17.87;100.00
36726;BME280;44936;52.086;5.150;2022-09-09T10:42:09;92734.34;;;17.98;100.00
36726;BME280;44936;52.086;5.150;2022-09-09T10:44:53;93029.16;;;17.87;100.00
36726;BME280;44936;52.086;5.150;2022-09-09T10:48:34;93078.66;;;18.33;100.00
36726;BME280;44936;52.086;5.150;2022-09-09T10:53:15;93594.38;;;18.23;100.00
36726;BME280;44936;52.086;5.150;2022-09-09T10:55:51;93796.94;;;18.33;100.00
36726;BME280;44936;52.086;5.150;2022-09-09T10:58:44;93857.06;;;18.71;100.00
36726;BME280;44936;52.086;5.150;2022-09-09T11:01:17;94084.13;;;18.72;100.00
36726;BME280;44936;52.086;5.150;2022-09-09T11:03:47;94285.94;;;18.77;100.00
36726;BME280;44936;52.086;5.150;2022-09-09T11:06:17;94389.63;;;18.76;100.00
36726;BME280;44936;52.086;5.150;2022-09-09T11:08:46;94518.97;;;18.67;100.00
36726;BME280;44936;52.086;5.150;2022-09-09T11:11:19;94608.38;;;18.73;100.00
36726;BME280;44936;52.086;5.150;2022-09-09T11:14:11;94663.88;;;18.75;100.00
36726;BME280;44936;52.086;5.150;2022-09-09T11:19:41;94765.06;;;18.72;100.00
36726;BME280;44936;52.086;5.150;2022-09-09T11:22:19;94781.44;;;18.75;100.00
36726;BME280;44936;52.086;5.150;2022-09-09T11:24:59;94766.72;;;18.73;100.00
36726;BME280;44936;52.086;5.150;2022-09-09T11:27:31;94859.47;;;18.87;100.00
36726;BME280;44936;52.086;5.150;2022-09-09T11:32:47;95020.56;;;19.08;100.00
36726;BME280;44936;52.086;5.150;2022-09-09T11:35:22;95117.63;;;18.81;100.00
36726;BME280;44936;52.086;5.150;2022-09-09T11:40:44;95176.53;;;18.62;100.00
36726;BME280;44936;52.086;5.150;2022-09-09T11:43:23;95188.34;;;18.45;100.00
36726;BME280;44936;52.086;5.150;2022-09-09T11:45:54;95077.94;;;18.58;100.00
36726;BME280;44936;52.086;5.150;2022-09-09T11:48:39;94998.00;;;18.61;100.00
36726;BME280;44936;52.086;5.150;2022-09-09T11:51:10;94955.25;;;18.35;100.00
36726;BME280;44936;52.086;5.150;2022-09-09T11:53:49;94860.75;;;18.27;100.00
36726;BME280;44936;52.086;5.150;2022-09-09T11:56:28;94786.09;;;18.24;100.00
36726;BME280;44936;52.086;5.150;2022-09-09T12:01:44;94584.38;;;18.19;100.00
36726;BME280;44936;52.086;5.150;2022-09-09T12:04:26;94526.81;;;18.06;100.00
36726;BME280;44936;52.086;5.150;2022-09-09T12:06:59;94474.75;;;17.92;100.00
36726;BME280;44936;52.086;5.150;2022-09-09T12:14:43;94324.81;;;17.56;100.00
36726;BME280;44936;52.086;5.150;2022-09-09T12:17:19;94298.34;;;17.49;100.00
36726;BME280;44936;52.086;5.150;2022-09-09T12:19:46;94221.16;;;17.52;100.00
36726;BME280;44936;52.086;5.150;2022-09-09T12:24:51;93994.47;;;17.85;100.00
36726;BME280;44936;52.086;5.150;2022-09-09T12:27:36;93949.78;;;18.01;100.00
36726;BME280;44936;52.086;5.150;2022-09-09T12:30:11;94019.66;;;18.14;100.00
36726;BME280;44936;52.086;5.150;2022-09-09T12:32:39;94088.09;;;18.36;100.00
36726;BME280;44936;52.086;5.150;2022-09-09T12:35:23;94156.59;;;18.66;100.00
36726;BME280;44936;52.086;5.150;2022-09-09T12:37:55;94296.13;;;18.93;100.00
36726;BME280;44936;52.086;5.150;2022-09-09T12:42:49;94806.19;;;19.17;100.00
36726;BME280;44936;52.086;5.150;2022-09-09T12:45:26;94966.69;;;19.42;100.00
36726;BME280;44936;52.086;5.150;2022-09-09T12:48:00;95203.63;;;19.52;100.00
36726;BME280;44936;52.086;5.150;2022-09-09T12:52:55;95489.97;;;19.42;100.00
36726;BME280;44936;52.086;5.150;2022-09-09T12:55:35;95530.72;;;19.58;100.00
36726;BME280;44936;52.086;5.150;2022-09-09T12:58:03;95600.25;;;19.38;100.00
36726;BME280;44936;52.086;5.150;2022-09-09T13:00:32;95568.09;;;19.56;100.00
36726;BME280;44936;52.086;5.150;2022-09-09T13:03:13;95589.63;;;19.61;100.00
36726;BME280;44936;52.086;5.150;2022-09-09T13:05:41;95662.59;;;19.50;100.00
36726;BME280;44936;52.086;5.150;2022-09-09T13:08:12;95760.47;;;19.39;100.00
36726;BME280;44936;52.086;5.150;2022-09-09T13:10:46;95733.84;;;19.47;100.00
36726;BME280;44936;52.086;5.150;2022-09-09T13:13:39;95778.44;;;19.29;100.00
36726;BME280;44936;52.086;5.150;2022-09-09T13:16:18;95721.59;;;19.69;100.00
36726;BME280;44936;52.086;5.150;2022-09-09T13:18:44;95800.97;;;19.80;100.00
36726;BME280;44936;52.086;5.150;2022-09-09T13:21:10;95839.69;;;20.05;100.00
36726;BME280;44936;52.086;5.150;2022-09-09T13:23:37;95972.88;;;19.88;100.00
36726;BME280;44936;52.086;5.150;2022-09-09T13:26:24;96112.47;;;19.67;100.00
36726;BME280;44936;52.086;5.150;2022-09-09T13:28:51;96104.34;;;19.61;100.00
36726;BME280;44936;52.086;5.150;2022-09-09T13:31:36;96048.19;;;19.80;100.00
36726;BME280;44936;52.086;5.150;2022-09-09T13:34:13;95883.22;;;20.04;100.00
36726;BME280;44936;52.086;5.150;2022-09-09T13:36:40;95884.59;;;20.00;100.00
36726;BME280;44936;52.086;5.150;2022-09-09T13:39:15;95934.63;;;19.97;100.00
36726;BME280;44936;52.086;5.150;2022-09-09T13:41:44;95922.47;;;20.02;100.00
36726;BME280;44936;52.086;5.150;2022-09-09T13:44:25;95936.88;;;19.69;100.00
36726;BME280;44936;52.086;5.150;2022-09-09T13:49:39;95861.56;;;19.45;100.00
36726;BME280;44936;52.086;5.150;2022-09-09T13:52:24;95765.22;;;19.12;100.00
36726;BME280;44936;52.086;5.150;2022-09-09T13:54:52;95598.78;;;19.13;100.00
36726;BME280;44936;52.086;5.150;2022-09-09T13:57:21;95527.16;;;18.82;100.00
36726;BME280;44936;52.086;5.150;2022-09-09T13:59:48;95346.50;;;18.60;100.00
36726;BME280;44936;52.086;5.150;2022-09-09T14:02:15;95157.25;;;18.53;100.00
36726;BME280;44936;52.086;5.150;2022-09-09T14:04:42;94916.69;;;18.54;100.00
36726;BME280;44936;52.086;5.150;2022-09-09T14:07:12;94704.44;;;18.40;100.00
36726;BME280;44936;52.086;5.150;2022-09-09T14:09:39;94496.25;;;18.03;100.00
36726;BME280;44936;52.086;5.150;2022-09-09T14:12:08;94322.78;;;18.19;100.00
36726;BME280;44936;52.086;5.150;2022-09-09T14:14:34;94150.53;;;17.99;100.00
36726;BME280;44936;52.086;5.150;2022-09-09T14:17:00;93953.28;;;17.89;100.00
36726;BME280;44936;52.086;5.150;2022-09-09T14:19:25;93694.44;;;17.71;100.00
36726;BME280;44936;52.086;5.150;2022-09-09T14:21:51;93414.56;;;17.71;100.00
36726;BME280;44936;52.086;5.150;2022-09-09T14:24:17;93153.41;;;17.59;100.00
36726;BME280;44936;52.086;5.150;2022-09-09T14:26:44;92863.50;;;17.79;100.00
36726;BME280;44936;52.086;5.150;2022-09-09T14:29:10;92514.03;;;18.01;100.00
36726;BME280;44936;52.086;5.150;2022-09-09T14:31:35;92147.69;;;18.23;100.00
36726;BME280;44936;52.086;5.150;2022-09-09T14:34:01;91848.84;;;18.20;100.00
36726;BME280;44936;52.086;5.150;2022-09-09T14:36:27;91686.97;;;18.62;100.00
36726;BME280;44936;52.086;5.150;2022-09-09T14:38:52;91539.53;;;18.91;100.00
36726;BME280;44936;52.086;5.150;2022-09-09T14:41:20;91486.91;;;19.09;100.00
36726;BME280;44936;52.086;5.150;2022-09-09T14:43:47;91532.88;;;19.38;100.00
36726;BME280;44936;52.086;5.150;2022-09-09T14:46:15;91638.94;;;19.59;100.00
36726;BME280;44936;52.086;5.150;2022-09-09T14:48:42;91919.81;;;19.57;100.00
36726;BME280;44936;52.086;5.150;2022-09-09T14:51:11;92368.25;;;19.63;100.00
36726;BME280;44936;52.086;5.150;2022-09-09T14:53:38;92951.44;;;19.36;100.00
36726;BME280;44936;52.086;5.150;2022-09-09T14:58:32;93828.50;;;19.16;100.00
36726;BME280;44936;52.086;5.150;2022-09-09T15:01:30;94076.03;;;19.05;100.00
36726;BME280;44936;52.086;5.150;2022-09-09T15:04:01;94183.44;;;18.96;100.00
36726;BME280;44936;52.086;5.150;2022-09-09T15:06:29;94304.72;;;18.82;100.00
36726;BME280;44936;52.086;5.150;2022-09-09T15:08:56;94356.34;;;18.73;100.00
36726;BME280;44936;52.086;5.150;2022-09-09T15:11:25;94354.91;;;18.77;100.00
36726;BME280;44936;52.086;5.150;2022-09-09T15:13:52;94388.75;;;18.62;100.00
36726;BME280;44936;52.086;5.150;2022-09-09T15:16:21;94344.28;;;18.71;100.00
36726;BME280;44936;52.086;5.150;2022-09-09T15:18:46;94320.19;;;18.52;100.00
36726;BME280;44936;52.086;5.150;2022-09-09T15:21:18;94310.81;;;18.50;100.00
36726;BME280;44936;52.086;5.150;2022-09-09T15:23:44;94274.28;;;18.52;100.00
36726;BME280;44936;52.086;5.150;2022-09-09T15:26:11;94204.53;;;18.58;100.00
36726;BME280;44936;52.086;5.150;2022-09-09T15:28:39;94240.84;;;18.31;100.00
36726;BME280;44936;52.086;5.150;2022-09-09T15:31:26;94334.84;;;18.35;100.00
36726;BME280;44936;52.086;5.150;2022-09-09T15:34:01;94431.03;;;18.09;100.00
36726;BME280;44936;52.086;5.150;2022-09-09T15:36:32;94537.47;;;18.19;100.00
36726;BME280;44936;52.086;5.150;2022-09-09T15:38:59;94534.50;;;18.29;100.00
36726;BME280;44936;52.086;5.150;2022-09-09T15:41:26;94578.09;;;18.26;100.00
36726;BME280;44936;52.086;5.150;2022-09-09T15:43:54;94544.34;;;18.42;100.00
36726;BME280;44936;52.086;5.150;2022-09-09T15:46:26;94531.94;;;18.49;100.00
36726;BME280;44936;52.086;5.150;2022-09-09T15:48:54;94615.97;;;18.48;100.00
36726;BME280;44936;52.086;5.150;2022-09-09T15:51:25;94714.44;;;18.38;100.00
36726;BME280;44936;52.086;5.150;2022-09-09T15:53:58;94855.69;;;18.54;100.00
36726;BME280;44936;52.086;5.150;2022-09-09T15:56:27;94852.69;;;18.57;100.00
36726;BME280;44936;52.086;5.150;2022-09-09T15:58:55;94842.94;;;18.64;100.00
36726;BME280;44936;52.086;5.150;2022-09-09T16:01:21;94780.16;;;18.71;100.00
36726;BME280;44936;52.086;5.150;2022-09-09T16:03:46;94869.78;;;18.54;100.00
36726;BME280;44936;52.086;5.150;2022-09-09T16:06:16;95049.41;;;18.46;100.00
36726;BME280;44936;52.086;5.150;2022-09-09T16:08:44;95200.03;;;18.35;100.00
36726;BME280;44936;52.086;5.150;2022-09-09T16:11:15;95281.22;;;18.36;100.00
36726;BME280;44936;52.086;5.150;2022-09-09T16:13:43;95269.53;;;18.31;100.00
36726;BME280;44936;52.086;5.150;2022-09-09T16:16:13;95340.97;;;18.01;100.00
36726;BME280;44936;52.086;5.150;2022-09-09T16:18:41;95356.41;;;17.98;100.00
36726;BME280;44936;52.086;5.150;2022-09-09T16:21:08;95319.06;;;17.85;100.00
36726;BME280;44936;52.086;5.150;2022-09-09T16:23:38;95165.63;;;17.75;100.00
36726;BME280;44936;52.086;5.150;2022-09-09T16:26:04;95011.53;;;17.71;100.00
36726;BME280;44936;52.086;5.150;2022-09-09T16:28:30;94897.06;;;17.61;100.00
36726;BME280;44936;52.086;5.150;2022-09-09T16:30:56;94818.53;;;17.53;100.00
36726;BME280;44936;52.086;5.150;2022-09-09T16:33:23;94762.91;;;17.53;100.00
36726;BME280;44936;52.086;5.150;2022-09-09T16:35:49;94687.88;;;17.46;100.00
36726;BME280;44936;52.086;5.150;2022-09-09T16:38:15;94643.47;;;17.42;100.00
36726;BME280;44936;52.086;5.150;2022-09-09T16:40:40;94554.06;;;17.44;100.00
36726;BME280;44936;52.086;5.150;2022-09-09T16:43:12;94420.94;;;17.50;100.00
36726;BME280;44936;52.086;5.150;2022-09-09T16:45:54;94194.44;;;17.47;100.00
36726;BME280;44936;52.086;5.150;2022-09-09T16:48:19;94044.56;;;17.40;100.00
36726;BME280;44936;52.086;5.150;2022-09-09T16:50:46;93955.59;;;17.39;100.00
36726;BME280;44936;52.086;5.150;2022-09-09T16:53:12;93884.75;;;17.41;100.00
36726;BME280;44936;52.086;5.150;2022-09-09T16:55:39;93844.59;;;17.50;100.00
36726;BME280;44936;52.086;5.150;2022-09-09T16:58:07;93842.56;;;17.52;100.00
36726;BME280;44936;52.086;5.150;2022-09-09T17:00:59;93839.69;;;17.54;100.00
36726;BME280;44936;52.086;5.150;2022-09-09T17:03:27;93819.75;;;17.58;100.00
36726;BME280;44936;52.086;5.150;2022-09-09T17:05:55;93821.59;;;17.51;100.00
36726;BME280;44936;52.086;5.150;2022-09-09T17:08:23;93843.16;;;17.48;100.00
36726;BME280;44936;52.086;5.150;2022-09-09T17:10:48;93843.75;;;17.56;100.00
36726;BME280;44936;52.086;5.150;2022-09-09T17:13:14;93830.34;;;17.51;100.00
36726;BME280;44936;52.086;5.150;2022-09-09T17:15:41;93799.84;;;17.36;100.00
36726;BME280;44936;52.086;5.150;2022-09-09T17:18:11;93843.38;;;17.53;100.00
36726;BME280;44936;52.086;5.150;2022-09-09T17:20:37;93823.47;;;17.37;100.00
36726;BME280;44936;52.086;5.150;2022-09-09T17:23:05;93796.56;;;17.40;100.00
36726;BME280;44936;52.086;5.150;2022-09-09T17:25:32;93821.81;;;17.49;100.00
36726;BME280;44936;52.086;5.150;2022-09-09T17:27:58;93874.13;;;17.47;100.00
36726;BME280;44936;52.086;5.150;2022-09-09T17:30:27;93908.53;;;17.54;100.00
36726;BME280;44936;52.086;5.150;2022-09-09T17:32:53;93894.91;;;17.44;100.00
36726;BME280;44936;52.086;5.150;2022-09-09T17:35:19;93880.50;;;17.26;100.00
36726;BME280;44936;52.086;5.150;2022-09-09T17:37:44;93905.47;;;17.57;100.00
36726;BME280;44936;52.086;5.150;2022-09-09T17:40:10;93850.53;;;17.39;100.00
36726;BME280;44936;52.086;5.150;2022-09-09T17:42:36;93890.22;;;17.52;100.00
36726;BME280;44936;52.086;5.150;2022-09-09T17:45:03;93940.09;;;17.49;100.00
36726;BME280;44936;52.086;5.150;2022-09-09T17:47:29;93947.25;;;17.42;100.00
36726;BME280;44936;52.086;5.150;2022-09-09T17:49:56;93954.97;;;17.30;100.00
36726;BME280;44936;52.086;5.150;2022-09-09T17:52:21;93980.00;;;17.47;100.00
36726;BME280;44936;52.086;5.150;2022-09-09T17:54:48;93980.84;;;17.41;100.00
36726;BME280;44936;52.086;5.150;2022-09-09T17:57:15;93968.63;;;17.47;100.00
36726;BME280;44936;52.086;5.150;2022-09-09T17:59:42;93934.03;;;17.42;100.00
36726;BME280;44936;52.086;5.150;2022-09-09T18:02:09;93918.75;;;17.37;100.00
36726;BME280;44936;52.086;5.150;2022-09-09T18:04:36;93880.06;;;17.36;100.00
36726;BME280;44936;52.086;5.150;2022-09-09T18:07:01;93812.28;;;17.28;100.00
36726;BME280;44936;52.086;5.150;2022-09-09T18:09:27;93746.56;;;17.25;100.00
36726;BME280;44936;52.086;5.150;2022-09-09T18:11:55;93689.97;;;17.26;100.00
36726;BME280;44936;52.086;5.150;2022-09-09T18:14:27;93594.16;;;17.18;100.00
36726;BME280;44936;52.086;5.150;2022-09-09T18:16:59;93528.22;;;17.16;100.00
36726;BME280;44936;52.086;5.150;2022-09-09T18:19:26;93487.13;;;17.14;100.00
36726;BME280;44936;52.086;5.150;2022-09-09T18:21:53;93373.31;;;16.95;100.00
36726;BME280;44936;52.086;5.150;2022-09-09T18:24:19;93262.56;;;17.06;100.00
36726;BME280;44936;52.086;5.150;2022-09-09T18:26:46;93140.75;;;17.01;100.00
36726;BME280;44936;52.086;5.150;2022-09-09T18:29:15;93024.31;;;17.07;100.00
36726;BME280;44936;52.086;5.150;2022-09-09T18:31:41;92897.44;;;16.89;100.00
36726;BME280;44936;52.086;5.150;2022-09-09T18:34:09;92796.38;;;17.10;100.00
36726;BME280;44936;52.086;5.150;2022-09-09T18:36:44;92686.81;;;16.94;100.00
36726;BME280;44936;52.086;5.150;2022-09-09T18:39:13;92579.97;;;16.67;100.00
36726;BME280;44936;52.086;5.150;2022-09-09T18:41:42;92577.28;;;16.90;100.00
36726;BME280;44936;52.086;5.150;2022-09-09T18:44:11;92503.78;;;16.76;100.00
36726;BME280;44936;52.086;5.150;2022-09-09T18:46:38;92447.47;;;16.75;100.00
36726;BME280;44936;52.086;5.150;2022-09-09T18:49:04;92326.72;;;16.47;100.00
36726;BME280;44936;52.086;5.150;2022-09-09T18:51:31;92289.41;;;16.60;100.00
36726;BME280;44936;52.086;5.150;2022-09-09T18:54:02;92234.97;;;16.59;100.00
36726;BME280;44936;52.086;5.150;2022-09-09T18:56:29;92150.13;;;16.39;100.00
36726;BME280;44936;52.086;5.150;2022-09-09T18:58:59;92071.00;;;16.49;100.00
36726;BME280;44936;52.086;5.150;2022-09-09T19:01:25;91959.16;;;16.38;100.00
36726;BME280;44936;52.086;5.150;2022-09-09T19:03:52;91867.06;;;16.47;100.00
36726;BME280;44936;52.086;5.150;2022-09-09T19:06:21;91764.00;;;16.42;100.00
36726;BME280;44936;52.086;5.150;2022-09-09T19:08:50;91650.34;;;16.32;100.00
36726;BME280;44936;52.086;5.150;2022-09-09T19:11:21;91568.03;;;16.45;100.00
36726;BME280;44936;52.086;5.150;2022-09-09T19:13:56;91476.88;;;16.42;100.00
36726;BME280;44936;52.086;5.150;2022-09-09T19:16:24;91355.41;;;16.48;100.00
36726;BME280;44936;52.086;5.150;2022-09-09T19:18:52;91238.94;;;16.39;100.00
36726;BME280;44936;52.086;5.150;2022-09-09T19:23:48;90984.25;;;16.60;100.00
36726;BME280;44936;52.086;5.150;2022-09-09T19:26:14;90863.31;;;16.57;100.00
36726;BME280;44936;52.086;5.150;2022-09-09T19:28:42;90715.38;;;16.57;100.00
36726;BME280;44936;52.086;5.150;2022-09-09T19:31:10;90585.97;;;16.57;100.00
36726;BME280;44936;52.086;5.150;2022-09-09T19:33:36;90489.25;;;16.61;100.00
36726;BME280;44936;52.086;5.150;2022-09-09T19:36:07;90441.44;;;16.63;100.00
36726;BME280;44936;52.086;5.150;2022-09-09T19:38:33;90420.06;;;16.59;100.00
36726;BME280;44936;52.086;5.150;2022-09-09T19:41:08;90410.38;;;16.55;100.00
36726;BME280;44936;52.086;5.150;2022-09-09T19:43:34;90413.50;;;16.57;100.00
36726;BME280;44936;52.086;5.150;2022-09-09T19:46:04;90473.81;;;16.50;100.00
36726;BME280;44936;52.086;5.150;2022-09-09T19:48:35;90527.41;;;16.50;100.00
36726;BME280;44936;52.086;5.150;2022-09-09T19:51:11;90564.09;;;16.52;100.00
36726;BME280;44936;52.086;5.150;2022-09-09T19:53:42;90577.81;;;16.30;100.00
36726;BME280;44936;52.086;5.150;2022-09-09T19:56:08;90615.47;;;16.40;100.00
36726;BME280;44936;52.086;5.150;2022-09-09T19:58:35;90663.78;;;16.41;100.00
36726;BME280;44936;52.086;5.150;2022-09-09T20:01:16;90658.69;;;16.21;100.00
36726;BME280;44936;52.086;5.150;2022-09-09T20:03:44;90698.56;;;16.19;100.00
36726;BME280;44936;52.086;5.150;2022-09-09T20:06:12;90665.44;;;16.32;100.00
36726;BME280;44936;52.086;5.150;2022-09-09T20:08:39;90621.72;;;16.21;100.00
36726;BME280;44936;52.086;5.150;2022-09-09T20:11:06;90591.59;;;16.27;100.00
36726;BME280;44936;52.086;5.150;2022-09-09T20:13:35;90557.03;;;16.23;100.00
36726;BME280;44936;52.086;5.150;2022-09-09T20:16:07;90531.41;;;16.24;100.00
36726;BME280;44936;52.086;5.150;2022-09-09T20:18:35;90514.00;;;16.23;100.00
36726;BME280;44936;52.086;5.150;2022-09-09T20:21:09;90481.25;;;16.24;100.00
36726;BME280;44936;52.086;5.150;2022-09-09T20:23:36;90432.44;;;16.02;100.00
36726;BME280;44936;52.086;5.150;2022-09-09T20:26:04;90428.75;;;16.22;100.00
36726;BME280;44936;52.086;5.150;2022-09-09T20:28:32;90396.28;;;16.22;100.00
36726;BME280;44936;52.086;5.150;2022-09-09T20:31:10;90363.69;;;16.31;100.00
36726;BME280;44936;52.086;5.150;2022-09-09T20:33:38;90361.84;;;16.32;100.00
36726;BME280;44936;52.086;5.150;2022-09-09T20:36:16;90373.69;;;16.34;100.00
36726;BME280;44936;52.086;5.150;2022-09-09T20:38:43;90396.59;;;16.39;100.00
36726;BME280;44936;52.086;5.150;2022-09-09T20:41:10;90391.47;;;16.48;100.00
36726;BME280;44936;52.086;5.150;2022-09-09T20:43:44;90426.41;;;16.39;100.00
36726;BME280;44936;52.086;5.150;2022-09-09T20:46:10;90467.38;;;16.37;100.00
36726;BME280;44936;52.086;5.150;2022-09-09T20:48:36;90515.69;;;16.37;100.00
36726;BME280;44936;52.086;5.150;2022-09-09T20:51:05;90561.88;;;16.40;100.00
36726;BME280;44936;52.086;5.150;2022-09-09T20:53:33;90602.38;;;16.30;100.00
36726;BME280;44936;52.086;5.150;2022-09-09T20:56:00;90701.13;;;16.29;100.00
36726;BME280;44936;52.086;5.150;2022-09-09T20:58:26;90771.25;;;16.40;100.00
36726;BME280;44936;52.086;5.150;2022-09-09T21:00:52;90867.16;;;16.36;100.00
36726;BME280;44936;52.086;5.150;2022-09-09T21:03:17;90952.16;;;16.38;100.00
36726;BME280;44936;52.086;5.150;2022-09-09T21:05:43;91048.00;;;16.38;100.00
36726;BME280;44936;52.086;5.150;2022-09-09T21:08:08;91131.44;;;16.39;100.00
36726;BME280;44936;52.086;5.150;2022-09-09T21:10:34;91274.84;;;16.30;100.00
36726;BME280;44936;52.086;5.150;2022-09-09T21:12:59;91367.78;;;16.32;100.00
36726;BME280;44936;52.086;5.150;2022-09-09T21:15:25;91477.91;;;16.26;100.00
36726;BME280;44936;52.086;5.150;2022-09-09T21:17:51;91570.53;;;16.20;100.00
36726;BME280;44936;52.086;5.150;2022-09-09T21:20:18;91634.91;;;16.13;100.00
36726;BME280;44936;52.086;5.150;2022-09-09T21:22:44;91706.66;;;16.05;100.00
36726;BME280;44936;52.086;5.150;2022-09-09T21:25:10;91747.63;;;16.08;100.00
36726;BME280;44936;52.086;5.150;2022-09-09T21:27:35;91775.59;;;16.09;100.00
36726;BME280;44936;52.086;5.150;2022-09-09T21:30:01;91796.16;;;16.07;100.00
36726;BME280;44936;52.086;5.150;2022-09-09T21:32:28;91819.38;;;16.05;100.00
36726;BME280;44936;52.086;5.150;2022-09-09T21:34:53;91803.59;;;16.10;100.00
36726;BME280;44936;52.086;5.150;2022-09-09T21:37:22;91786.56;;;15.96;100.00
36726;BME280;44936;52.086;5.150;2022-09-09T21:39:48;91788.69;;;15.99;100.00
36726;BME280;44936;52.086;5.150;2022-09-09T21:42:19;91775.81;;;16.02;100.00
36726;BME280;44936;52.086;5.150;2022-09-09T21:44:45;91725.09;;;16.00;100.00
36726;BME280;44936;52.086;5.150;2022-09-09T21:47:10;91666.91;;;15.85;100.00
36726;BME280;44936;52.086;5.150;2022-09-09T21:49:36;91659.88;;;15.96;100.00
36726;BME280;44936;52.086;5.150;2022-09-09T21:52:03;91624.00;;;16.00;100.00
36726;BME280;44936;52.086;5.150;2022-09-09T21:54:29;91569.88;;;15.97;100.00
36726;BME280;44936;52.086;5.150;2022-09-09T21:56:56;91544.03;;;15.99;100.00
36726;BME280;44936;52.086;5.150;2022-09-09T21:59:21;91489.94;;;16.02;100.00
36726;BME280;44936;52.086;5.150;2022-09-09T22:01:47;91457.22;;;16.03;100.00
36726;BME280;44936;52.086;5.150;2022-09-09T22:04:12;91399.41;;;16.06;100.00
36726;BME280;44936;52.086;5.150;2022-09-09T22:06:38;91364.03;;;16.07;100.00
36726;BME280;44936;52.086;5.150;2022-09-09T22:09:04;91355.03;;;15.98;100.00
36726;BME280;44936;52.086;5.150;2022-09-09T22:11:30;91331.81;;;15.95;100.00
36726;BME280;44936;52.086;5.150;2022-09-09T22:14:00;91285.03;;;15.65;100.00
36726;BME280;44936;52.086;5.150;2022-09-09T22:16:25;91345.25;;;15.89;100.00
36726;BME280;44936;52.086;5.150;2022-09-09T22:18:55;91375.31;;;15.88;100.00
36726;BME280;44936;52.086;5.150;2022-09-09T22:21:22;91401.19;;;15.85;100.00
36726;BME280;44936;52.086;5.150;2022-09-09T22:23:59;91372.91;;;15.81;100.00
36726;BME280;44936;52.086;5.150;2022-09-09T22:26:27;91410.69;;;15.86;100.00
36726;BME280;44936;52.086;5.150;2022-09-09T22:28:53;91434.13;;;15.78;100.00
36726;BME280;44936;52.086;5.150;2022-09-09T22:31:22;91421.44;;;15.75;100.00
36726;BME280;44936;52.086;5.150;2022-09-09T22:33:49;91361.81;;;15.74;100.00
36726;BME280;44936;52.086;5.150;2022-09-09T22:36:15;91332.84;;;15.84;100.00
36726;BME280;44936;52.086;5.150;2022-09-09T22:38:41;91234.13;;;15.70;100.00
36726;BME280;44936;52.086;5.150;2022-09-09T22:41:07;91176.09;;;15.85;100.00
36726;BME280;44936;52.086;5.150;2022-09-09T22:43:32;91096.69;;;15.86;100.00
36726;BME280;44936;52.086;5.150;2022-09-09T22:45:59;91040.47;;;15.91;100.00
36726;BME280;44936;52.086;5.150;2022-09-09T22:48:25;90999.28;;;15.90;100.00
36726;BME280;44936;52.086;5.150;2022-09-09T22:50:50;90945.22;;;15.93;100.00